This is the latest recevied weather packets stored in our database for station/object K1FFK-1. If no packets are shown the sender has not sent any weather packets the latest 10 day(s).
| Time | Temp. | Humidity | Pressure | Rain* | Wind** | Luminosity | Snow |
|---|---|---|---|---|---|---|---|
| 1777915293 | 10° C | 56% | 1013 hPa | 0 mm | - | - | - |
| 1777914694 | 10.56° C | 55% | 1013.1 hPa | 0 mm | - | - | - |
| 1777914094 | 11.11° C | 53% | 1012.7 hPa | 0 mm | - | - | - |
| 1777913493 | 11.11° C | 53% | 1012.9 hPa | 0 mm | - | - | - |
| 1777912894 | 10° C | 56% | 1012.8 hPa | 0 mm | - | - | - |
| 1777912294 | 10.56° C | 54% | 1013 hPa | 0 mm | - | - | - |
| 1777911693 | 10° C | 54% | 1012.9 hPa | 0 mm | - | - | - |
| 1777911094 | 10° C | 55% | 1012.9 hPa | 0 mm | - | - | - |
| 1777910493 | 11.11° C | 53% | 1013 hPa | 0 mm | - | - | - |
| 1777909894 | 11.11° C | 54% | 1013.1 hPa | 0 mm | - | - | - |
| 1777909294 | 10° C | 57% | 1013.2 hPa | 0 mm | - | - | - |
| 1777908694 | 9.44° C | 57% | 1013 hPa | 0 mm | - | - | - |
| 1777908094 | 9.44° C | 58% | 1013.2 hPa | 0 mm | - | - | - |
| 1777907494 | 8.89° C | 59% | 1013.2 hPa | 0 mm | - | - | - |
| 1777906894 | 8.89° C | 59% | 1013.3 hPa | 0 mm | - | - | - |
| 1777906294 | 8.33° C | 59% | 1013.1 hPa | 0 mm | - | - | - |
| 1777905694 | 8.33° C | 61% | 1013.2 hPa | 0 mm | - | - | - |
| 1777905094 | 7.78° C | 60% | 1013.2 hPa | 0 mm | - | - | - |
| 1777904495 | 7.78° C | 61% | 1013.1 hPa | 0 mm | - | - | - |
| 1777903894 | 7.22° C | 62% | 1013.2 hPa | 0 mm | - | - | - |
| 1777903294 | 6.67° C | 63% | 1013.3 hPa | 0 mm | - | - | - |
| 1777902693 | 6.11° C | 63% | 1013.2 hPa | 0 mm | - | - | - |
| 1777902094 | 6.11° C | 63% | 1013.1 hPa | 0 mm | - | - | - |
| 1777901494 | 6.11° C | 64% | 1013.1 hPa | 0 mm | - | - | - |
| 1777900895 | 5.56° C | 65% | 1013.2 hPa | 0 mm | - | - | - |
* Rain latest hour (hover to see other rain measurements)
** Current wind speed in m/s (hover to see current wind gust speed)